Time;durP1;ratioP1;P1;durP2;ratioP2;P2;SDS_P1;SDS_P2;PMS_P1;PMS_P2;Temp;Humidity;BMP_temperature;BMP_pressure;BME280_temperature;BME280_humidity;BME280_pressure;Samples;Min_cycle;Max_cycle;Signal;HPM_P1;HPM_P2
2021/04/28 00:01:25;;;;;;;21.87;15.13;;;6.10;99.90;;;;;;5019409;28;20227;-74
2021/04/28 00:03:51;;;;;;;22.00;14.20;;;6.10;99.90;;;;;;5021640;28;20243;-74
2021/04/28 00:06:18;;;;;;;20.83;14.87;;;6.00;99.90;;;;;;5022405;28;20750;-74
2021/04/28 00:08:44;;;;;;;20.47;14.13;;;5.90;99.90;;;;;;5031336;28;20197;-74
2021/04/28 00:11:10;;;;;;;22.97;14.83;;;6.00;99.90;;;;;;5031005;28;20228;-74
2021/04/28 00:13:38;;;;;;;26.00;14.90;;;5.90;99.90;;;;;;5023068;28;20220;-73
2021/04/28 00:16:05;;;;;;;24.03;14.37;;;6.00;99.90;;;;;;5017391;28;20232;-73
2021/04/28 00:18:32;;;;;;;22.10;14.67;;;5.90;99.90;;;;;;5031477;28;20213;-73
2021/04/28 00:20:59;;;;;;;22.10;14.70;;;5.80;99.90;;;;;;5027835;28;20289;-73
2021/04/28 00:23:25;;;;;;;24.27;15.07;;;5.80;99.90;;;;;;5028045;28;20208;-73
2021/04/28 00:25:52;;;;;;;21.90;14.73;;;5.80;99.90;;;;;;5012759;28;20246;-73
2021/04/28 00:28:18;;;;;;;22.50;15.03;;;5.90;99.90;;;;;;5011233;28;20292;-74
2021/04/28 00:30:45;;;;;;;21.53;15.40;;;5.90;99.90;;;;;;5011054;28;20234;-73
2021/04/28 00:33:12;;;;;;;24.17;14.97;;;5.90;99.90;;;;;;5011094;28;20312;-74
2021/04/28 00:35:39;;;;;;;21.57;14.93;;;5.80;99.90;;;;;;5020036;28;20294;-73
2021/04/28 00:38:05;;;;;;;28.57;15.67;;;5.80;99.90;;;;;;5032023;28;20297;-73
2021/04/28 00:40:34;;;;;;;22.70;14.90;;;5.90;99.90;;;;;;5014816;28;20514;-73
2021/04/28 00:43:01;;;;;;;23.27;15.80;;;5.80;99.90;;;;;;5014430;28;20289;-73
2021/04/28 00:45:29;;;;;;;26.87;16.07;;;5.80;99.90;;;;;;5015061;28;20298;-73
2021/04/28 00:48:00;;;;;;;25.10;15.90;;;5.80;99.90;;;;;;5014649;28;20211;-73
2021/04/28 00:50:29;;;;;;;26.63;15.30;;;5.80;99.90;;;;;;5022672;28;20207;-73
2021/04/28 00:52:56;;;;;;;23.87;16.07;;;5.70;99.90;;;;;;5013668;28;20214;-73
2021/04/28 00:55:23;;;;;;;22.47;15.60;;;5.70;99.90;;;;;;5019970;28;20291;-73
2021/04/28 00:57:51;;;;;;;28.60;16.20;;;5.70;99.90;;;;;;5015069;28;20329;-72
2021/04/28 01:00:18;;;;;;;23.70;15.77;;;5.70;99.90;;;;;;5014449;28;20732;-72
2021/04/28 01:02:45;;;;;;;24.60;17.10;;;5.60;99.90;;;;;;5021008;28;20284;-73
2021/04/28 01:05:15;;;;;;;25.77;16.17;;;5.50;99.90;;;;;;5023781;28;20761;-73
2021/04/28 01:07:43;;;;;;;26.13;16.43;;;5.50;99.90;;;;;;5014708;28;20285;-72
2021/04/28 01:10:13;;;;;;;24.67;15.50;;;5.50;99.90;;;;;;5010841;28;20296;-73
2021/04/28 01:12:40;;;;;;;26.80;15.87;;;5.50;99.90;;;;;;5001087;28;20308;-73
2021/04/28 01:15:10;;;;;;;22.57;15.90;;;5.50;99.90;;;;;;5014164;28;20316;-72
2021/04/28 01:17:37;;;;;;;23.50;16.13;;;5.50;99.90;;;;;;5016979;28;20228;-73
2021/04/28 01:20:05;;;;;;;26.00;17.03;;;5.50;99.90;;;;;;5033754;28;20293;-73
2021/04/28 01:22:38;;;;;;;27.57;16.70;;;5.50;99.90;;;;;;5033762;28;20196;-72
2021/04/28 01:25:06;;;;;;;25.47;16.77;;;5.50;99.90;;;;;;5015923;28;20303;-73
2021/04/28 01:27:35;;;;;;;24.90;16.20;;;5.50;99.90;;;;;;5013905;28;20304;-73
2021/04/28 01:30:03;;;;;;;23.83;15.83;;;5.40;99.90;;;;;;5020804;28;20292;-73
2021/04/28 01:32:30;;;;;;;25.43;16.37;;;5.40;99.90;;;;;;5013715;28;20292;-73
2021/04/28 01:34:58;;;;;;;23.03;15.23;;;5.30;99.90;;;;;;5014268;28;20294;-73
2021/04/28 01:37:25;;;;;;;23.17;15.07;;;5.10;99.90;;;;;;5013646;28;20228;-73
2021/04/28 01:39:54;;;;;;;22.97;15.87;;;5.10;99.90;;;;;;5026979;28;20246;-73
2021/04/28 01:42:21;;;;;;;24.00;15.57;;;5.10;99.90;;;;;;5013510;28;20737;-73
2021/04/28 01:44:49;;;;;;;25.73;15.70;;;5.00;99.90;;;;;;5013712;28;20288;-73
2021/04/28 01:47:16;;;;;;;23.53;14.63;;;4.90;99.90;;;;;;5013618;28;20287;-73
2021/04/28 01:49:44;;;;;;;23.80;14.30;;;4.80;99.90;;;;;;5012467;28;20684;-72
2021/04/28 01:52:10;;;;;;;18.37;14.23;;;4.80;99.90;;;;;;5031580;28;20727;-72
2021/04/28 01:54:37;;;;;;;25.30;14.90;;;4.80;99.90;;;;;;5021272;28;20221;-73
2021/04/28 01:57:07;;;;;;;21.03;14.77;;;4.80;99.90;;;;;;5026003;28;20646;-73
2021/04/28 01:59:34;;;;;;;24.93;14.70;;;4.70;99.90;;;;;;5024184;28;20633;-73
2021/04/28 02:02:03;;;;;;;23.53;14.50;;;4.60;99.90;;;;;;5013456;28;20284;-72
2021/04/28 02:04:30;;;;;;;21.33;14.30;;;4.70;99.90;;;;;;5025970;28;20283;-73
2021/04/28 02:06:56;;;;;;;22.87;14.37;;;4.70;99.90;;;;;;5013223;28;20225;-72
2021/04/28 02:09:23;;;;;;;22.00;14.17;;;4.80;99.90;;;;;;5013076;28;20296;-73
2021/04/28 02:11:49;;;;;;;21.43;14.87;;;4.70;99.90;;;;;;5000625;28;20226;-73
2021/04/28 02:14:20;;;;;;;26.20;14.53;;;4.70;99.90;;;;;;5013421;28;20267;-73
2021/04/28 02:16:48;;;;;;;26.60;14.33;;;4.70;99.90;;;;;;5013986;28;20323;-72
2021/04/28 02:19:16;;;;;;;19.53;14.67;;;4.70;99.90;;;;;;5033184;28;20288;-73
2021/04/28 02:21:44;;;;;;;21.80;13.63;;;4.60;99.90;;;;;;5032598;28;20240;-73
2021/04/28 02:24:13;;;;;;;20.10;13.93;;;4.50;99.90;;;;;;5032736;28;20632;-73
2021/04/28 02:26:40;;;;;;;18.57;13.37;;;4.40;99.90;;;;;;5032787;28;20637;-73
2021/04/28 02:29:07;;;;;;;20.57;14.20;;;4.30;99.90;;;;;;5012171;28;20290;-73
2021/04/28 02:31:34;;;;;;;20.33;14.23;;;4.40;99.90;;;;;;5022166;28;20298;-73
2021/04/28 02:34:01;;;;;;;21.60;13.63;;;4.40;99.90;;;;;;5031712;28;20312;-72
2021/04/28 02:36:28;;;;;;;21.50;13.13;;;4.50;99.90;;;;;;5012797;28;20287;-73
2021/04/28 02:38:59;;;;;;;21.57;14.17;;;4.40;99.90;;;;;;5024003;28;20775;-72
2021/04/28 02:41:26;;;;;;;19.57;13.70;;;4.50;99.90;;;;;;5012566;28;20287;-72
2021/04/28 02:43:54;;;;;;;22.27;14.10;;;4.50;99.90;;;;;;5012421;28;20289;-73
2021/04/28 02:46:23;;;;;;;22.37;13.63;;;4.60;99.90;;;;;;5012575;28;20301;-73
2021/04/28 02:48:52;;;;;;;21.43;14.30;;;4.60;99.90;;;;;;5012236;28;20730;-73
2021/04/28 02:51:18;;;;;;;23.13;14.33;;;4.70;99.90;;;;;;5022981;28;20290;-72
2021/04/28 02:53:46;;;;;;;22.87;14.07;;;4.60;99.90;;;;;;5032240;28;20323;-73
2021/04/28 02:56:13;;;;;;;22.13;14.57;;;4.50;99.90;;;;;;5026063;28;20203;-73
2021/04/28 02:58:41;;;;;;;20.37;14.53;;;4.50;99.90;;;;;;5032310;28;20235;-73
2021/04/28 03:01:09;;;;;;;20.77;13.63;;;4.40;99.90;;;;;;5031119;28;20203;-72
2021/04/28 03:03:38;;;;;;;18.17;13.73;;;4.30;99.90;;;;;;5032339;28;20192;-73
2021/04/28 03:06:07;;;;;;;19.50;13.80;;;4.20;99.90;;;;;;5017155;28;20327;-72
2021/04/28 03:08:37;;;;;;;19.63;13.80;;;4.10;99.90;;;;;;5012486;28;20205;-73
2021/04/28 03:11:04;;;;;;;21.60;13.83;;;4.00;99.90;;;;;;5012084;28;20301;-73
2021/04/28 03:13:30;;;;;;;18.37;13.03;;;3.90;99.90;;;;;;5025053;28;20323;-73
2021/04/28 03:15:57;;;;;;;18.90;12.60;;;3.80;99.90;;;;;;5031990;28;20323;-73
2021/04/28 03:18:24;;;;;;;17.20;12.80;;;3.70;99.90;;;;;;5013950;28;20704;-72
2021/04/28 03:20:53;;;;;;;20.33;13.50;;;3.50;99.90;;;;;;5012178;28;20295;-73
2021/04/28 03:23:20;;;;;;;17.33;13.03;;;3.50;99.90;;;;;;5021436;28;20215;-72
2021/04/28 03:25:47;;;;;;;18.67;12.77;;;3.50;99.90;;;;;;5020938;28;20205;-73
2021/04/28 03:28:14;;;;;;;17.90;13.30;;;3.50;99.90;;;;;;5012210;28;20289;-73
2021/04/28 03:30:40;;;;;;;18.83;14.10;;;3.50;99.90;;;;;;5012077;28;20956;-73
2021/04/28 03:33:07;;;;;;;21.70;13.50;;;3.60;99.90;;;;;;5011743;28;20227;-73
2021/04/28 03:35:34;;;;;;;21.40;14.43;;;3.50;99.90;;;;;;5015087;28;20350;-72
2021/04/28 03:38:00;;;;;;;20.23;14.00;;;3.60;99.90;;;;;;5012273;28;20232;-73
2021/04/28 03:40:28;;;;;;;21.30;14.73;;;3.50;99.90;;;;;;5011664;28;20291;-74
2021/04/28 03:42:54;;;;;;;20.50;13.27;;;3.50;99.90;;;;;;5011785;28;20208;-73
2021/04/28 03:45:20;;;;;;;18.27;12.83;;;3.50;99.90;;;;;;5011836;28;20302;-73
2021/04/28 03:47:47;;;;;;;18.57;13.10;;;3.40;99.90;;;;;;5011468;28;20617;-73
2021/04/28 03:50:14;;;;;;;18.67;12.47;;;3.30;99.90;;;;;;5011320;28;20295;-72
2021/04/28 03:52:41;;;;;;;16.90;11.73;;;3.20;99.90;;;;;;5011851;28;20277;-73
2021/04/28 03:55:09;;;;;;;16.27;12.37;;;3.20;99.90;;;;;;5012050;28;20606;-72
2021/04/28 03:57:37;;;;;;;16.27;12.10;;;3.10;99.90;;;;;;5027281;28;20289;-72
2021/04/28 04:00:05;;;;;;;17.67;12.30;;;2.90;99.90;;;;;;5031861;28;20294;-72
2021/04/28 04:02:32;;;;;;;17.67;12.20;;;2.90;99.90;;;;;;5021853;28;20635;-72
2021/04/28 04:04:59;;;;;;;16.70;11.73;;;2.80;99.90;;;;;;5011732;28;20294;-72
2021/04/28 04:07:26;;;;;;;20.43;12.70;;;2.80;99.90;;;;;;5011606;28;20199;-72
2021/04/28 04:09:52;;;;;;;16.50;12.70;;;2.80;99.90;;;;;;5012187;28;20295;-72
2021/04/28 04:12:19;;;;;;;17.03;12.57;;;2.80;99.90;;;;;;4999445;28;20230;-72
2021/04/28 04:14:46;;;;;;;19.77;12.47;;;2.80;99.90;;;;;;5015836;28;20243;-74
2021/04/28 04:17:13;;;;;;;16.27;12.53;;;2.80;99.90;;;;;;5015168;28;20710;-74
2021/04/28 04:19:39;;;;;;;18.40;12.90;;;2.90;99.90;;;;;;5014914;28;20210;-74
2021/04/28 04:22:06;;;;;;;18.63;12.73;;;3.00;99.90;;;;;;5015514;28;20709;-74
2021/04/28 04:24:32;;;;;;;21.07;13.37;;;3.00;99.90;;;;;;5023385;28;20293;-72
2021/04/28 04:26:59;;;;;;;16.77;12.70;;;3.00;99.90;;;;;;5031080;28;20290;-73
2021/04/28 04:29:26;;;;;;;17.73;12.70;;;3.00;99.90;;;;;;5017029;28;20289;-73
2021/04/28 04:31:54;;;;;;;17.63;11.80;;;3.10;99.90;;;;;;5034687;28;20296;-72
2021/04/28 04:34:20;;;;;;;18.80;12.77;;;3.10;99.90;;;;;;5034912;28;20219;-73
2021/04/28 04:36:46;;;;;;;19.10;13.53;;;2.90;99.90;;;;;;5034628;28;20202;-72
2021/04/28 04:39:13;;;;;;;20.73;13.57;;;3.00;99.90;;;;;;5019062;28;20305;-74
2021/04/28 04:41:39;;;;;;;22.00;13.93;;;3.10;99.90;;;;;;5014991;28;20238;-74
2021/04/28 04:44:06;;;;;;;19.40;13.80;;;3.30;99.90;;;;;;5014679;28;20282;-74
2021/04/28 04:46:32;;;;;;;20.43;13.73;;;3.30;99.90;;;;;;5030178;28;20244;-75
2021/04/28 04:48:59;;;;;;;20.53;14.47;;;3.30;99.90;;;;;;5014762;28;20341;-74
2021/04/28 04:51:26;;;;;;;21.23;13.67;;;3.30;99.90;;;;;;5014811;28;20290;-74
2021/04/28 04:53:52;;;;;;;20.20;13.93;;;3.40;99.90;;;;;;5014776;28;20317;-74
2021/04/28 04:56:18;;;;;;;22.07;14.17;;;3.40;99.90;;;;;;5014929;28;20293;-74
2021/04/28 04:58:45;;;;;;;19.33;12.87;;;3.40;99.90;;;;;;5014872;28;20766;-74
2021/04/28 05:01:11;;;;;;;20.43;13.80;;;3.50;99.90;;;;;;5015002;28;20295;-74
2021/04/28 05:03:37;;;;;;;23.87;14.70;;;3.50;99.90;;;;;;5014678;28;20283;-74
2021/04/28 05:06:05;;;;;;;20.70;14.13;;;3.60;99.90;;;;;;5014392;28;20289;-74
2021/04/28 05:08:31;;;;;;;19.67;13.83;;;3.60;99.90;;;;;;5014522;28;20595;-74
2021/04/28 05:10:58;;;;;;;20.30;13.83;;;3.50;99.90;;;;;;5014242;28;20235;-74
2021/04/28 05:13:24;;;;;;;20.87;14.47;;;3.50;99.90;;;;;;5026944;28;20356;-74
2021/04/28 05:15:51;;;;;;;17.70;13.17;;;3.50;99.90;;;;;;5033772;28;20238;-75
2021/04/28 05:18:17;;;;;;;18.53;13.03;;;3.40;99.90;;;;;;5022322;28;20290;-75
2021/04/28 05:20:44;;;;;;;19.27;13.33;;;3.40;99.90;;;;;;5014486;28;20639;-76
2021/04/28 05:23:11;;;;;;;19.03;13.20;;;3.50;99.90;;;;;;5013480;28;20202;-75
2021/04/28 05:25:38;;;;;;;19.57;14.50;;;3.50;99.90;;;;;;5014386;28;20783;-75
2021/04/28 05:28:07;;;;;;;21.90;14.13;;;3.70;99.90;;;;;;5013976;28;20214;-75
2021/04/28 05:30:33;;;;;;;17.93;13.50;;;3.80;99.90;;;;;;5013981;28;20208;-75
2021/04/28 05:33:00;;;;;;;18.43;13.50;;;3.90;99.90;;;;;;5013294;28;20700;-75
2021/04/28 05:35:26;;;;;;;16.20;12.53;;;4.00;99.90;;;;;;5022395;28;20683;-74
2021/04/28 05:37:53;;;;;;;21.17;14.30;;;4.10;99.90;;;;;;5031028;28;20219;-75
2021/04/28 05:40:21;;;;;;;17.07;13.40;;;4.30;99.90;;;;;;5025289;28;20290;-75
2021/04/28 05:42:50;;;;;;;19.87;13.40;;;4.30;99.90;;;;;;5021258;28;20202;-73
2021/04/28 05:45:18;;;;;;;20.63;13.87;;;4.40;99.90;;;;;;5014102;28;20644;-73
2021/04/28 05:47:45;;;;;;;20.43;13.00;;;4.40;99.90;;;;;;5010406;28;20215;-73
2021/04/28 05:50:14;;;;;;;18.97;12.57;;;4.40;99.90;;;;;;5014426;28;20208;-73
2021/04/28 05:52:41;;;;;;;21.07;13.17;;;4.50;99.90;;;;;;5013791;28;20209;-73
2021/04/28 05:55:09;;;;;;;23.10;13.27;;;4.50;99.90;;;;;;5019448;28;20204;-73
2021/04/28 05:57:38;;;;;;;19.60;13.40;;;4.80;99.90;;;;;;5017663;28;20724;-74
2021/04/28 06:00:06;;;;;;;20.03;12.50;;;5.20;99.90;;;;;;5012548;28;20207;-74
2021/04/28 06:02:33;;;;;;;19.00;13.07;;;5.50;99.90;;;;;;5016371;28;20294;-73
2021/04/28 06:04:59;;;;;;;18.93;13.00;;;6.20;99.90;;;;;;5010649;28;20742;-74
2021/04/28 06:07:25;;;;;;;17.93;11.90;;;7.00;99.90;;;;;;5012188;28;20315;-74
2021/04/28 06:09:52;;;;;;;15.83;11.80;;;7.60;99.90;;;;;;5010363;28;20232;-71
2021/04/28 06:12:18;;;;;;;16.27;11.80;;;8.20;99.90;;;;;;5016602;28;20660;-71
2021/04/28 06:14:46;;;;;;;15.30;11.03;;;8.90;99.90;;;;;;5017846;28;20325;-71
2021/04/28 06:17:12;;;;;;;17.97;11.77;;;9.10;99.90;;;;;;5012719;28;20312;-71
2021/04/28 06:19:39;;;;;;;15.40;11.73;;;9.70;99.90;;;;;;5013673;28;20204;-71
2021/04/28 06:22:05;;;;;;;17.37;11.53;;;10.30;99.90;;;;;;5014206;28;20277;-73
2021/04/28 06:24:32;;;;;;;17.53;11.97;;;9.20;99.90;;;;;;5018001;28;20716;-74
2021/04/28 06:26:59;;;;;;;18.47;12.70;;;9.20;99.90;;;;;;5012557;28;20284;-74
2021/04/28 06:29:25;;;;;;;15.70;12.40;;;10.20;99.90;;;;;;5015886;28;20288;-73
2021/04/28 06:31:52;;;;;;;15.53;11.83;;;10.80;99.90;;;;;;5017922;28;20293;-71
2021/04/28 06:34:19;;;;;;;17.13;12.67;;;11.30;99.90;;;;;;5017806;28;20763;-73
2021/04/28 06:36:47;;;;;;;13.40;12.00;;;10.90;99.90;;;;;;5018767;28;20288;-73
2021/04/28 06:39:13;;;;;;;15.07;11.60;;;10.20;99.90;;;;;;5021414;28;20302;-71
2021/04/28 06:41:39;;;;;;;13.60;11.80;;;9.40;99.90;;;;;;5018298;28;20906;-74
2021/04/28 06:44:06;;;;;;;16.17;13.20;;;10.70;99.90;;;;;;5012896;28;20196;-73
2021/04/28 06:46:33;;;;;;;16.73;13.53;;;11.80;99.90;;;;;;5013207;28;20779;-73
2021/04/28 06:49:00;;;;;;;13.53;11.33;;;13.20;99.90;;;;;;5014283;28;20296;-73
2021/04/28 06:51:27;;;;;;;13.97;11.37;;;14.10;99.90;;;;;;5015743;28;20263;-73
2021/04/28 06:53:53;;;;;;;13.57;11.53;;;14.20;99.90;;;;;;5014406;28;20319;-74
2021/04/28 06:56:20;;;;;;;14.90;11.93;;;14.20;99.90;;;;;;5012612;28;20212;-73
2021/04/28 06:58:48;;;;;;;15.93;12.20;;;13.00;99.90;;;;;;5014881;28;20292;-74
2021/04/28 07:01:15;;;;;;;14.97;12.57;;;11.90;99.90;;;;;;5016085;28;21042;-73
2021/04/28 07:03:41;;;;;;;16.20;14.13;;;11.10;99.90;;;;;;5018886;28;20199;-74
2021/04/28 07:06:11;;;;;;;16.03;12.90;;;11.60;99.90;;;;;;5013494;28;21026;-74
2021/04/28 07:08:38;;;;;;;16.77;13.53;;;12.00;99.90;;;;;;5010654;28;20193;-74
2021/04/28 07:11:05;;;;;;;15.20;13.03;;;11.90;99.90;;;;;;5011057;28;20215;-74
2021/04/28 07:13:31;;;;;;;15.60;13.30;;;11.40;99.90;;;;;;5013441;28;20287;-74
2021/04/28 07:15:58;;;;;;;17.40;14.30;;;10.80;99.90;;;;;;5020472;28;20318;-74
2021/04/28 07:18:24;;;;;;;20.07;14.27;;;11.00;99.90;;;;;;5008722;28;20231;-74
2021/04/28 07:20:51;;;;;;;17.07;13.17;;;13.00;99.90;;;;;;5015062;28;20316;-74
2021/04/28 07:23:19;;;;;;;17.07;13.37;;;13.10;99.90;;;;;;5014077;28;20258;-74
2021/04/28 07:25:45;;;;;;;21.30;13.17;;;12.70;99.90;;;;;;5014616;28;20197;-75
2021/04/28 07:28:11;;;;;;;17.63;12.73;;;13.80;99.90;;;;;;5015080;28;20243;-75
2021/04/28 07:30:38;;;;;;;16.70;12.07;;;15.00;99.90;;;;;;5013134;28;20205;-74
2021/04/28 07:33:05;;;;;;;14.00;11.40;;;14.90;99.90;;;;;;5011838;28;20220;-75
2021/04/28 07:35:31;;;;;;;17.60;10.93;;;15.40;99.90;;;;;;5014881;28;20197;-74
2021/04/28 07:37:58;;;;;;;14.20;8.20;;;16.70;99.90;;;;;;5012927;28;20284;-74
2021/04/28 07:40:25;;;;;;;9.23;6.60;;;17.20;99.90;;;;;;5011494;28;20200;-75
2021/04/28 07:42:52;;;;;;;8.27;6.57;;;18.10;99.90;;;;;;5010706;28;20266;-75
2021/04/28 07:45:19;;;;;;;8.25;5.70;;;18.00;99.90;;;;;;5012580;28;20338;-74
2021/04/28 07:47:45;;;;;;;7.15;4.95;;;17.30;99.90;;;;;;5012832;28;20232;-75
2021/04/28 07:50:13;;;;;;;8.20;4.07;;;15.60;99.90;;;;;;5009801;28;20235;-74
2021/04/28 07:52:40;;;;;;;11.75;4.50;;;15.30;99.90;;;;;;5003442;28;20299;-74
2021/04/28 07:55:07;;;;;;;8.00;4.43;;;15.60;99.90;;;;;;5010750;28;20633;-75
2021/04/28 07:57:35;;;;;;;7.05;4.00;;;16.20;99.90;;;;;;5009419;28;20672;-75
2021/04/28 08:00:01;;;;;;;7.27;3.77;;;16.00;99.90;;;;;;5014489;28;20193;-74
2021/04/28 08:02:29;;;;;;;6.32;4.05;;;15.90;99.90;;;;;;5020659;28;20294;-75
2021/04/28 08:04:55;;;;;;;7.00;4.10;;;17.50;99.90;;;;;;5014557;28;20288;-75
2021/04/28 08:07:22;;;;;;;6.25;3.30;;;18.60;99.90;;;;;;5014605;28;20288;-75
2021/04/28 08:09:48;;;;;;;6.55;3.47;;;18.60;99.90;;;;;;5010243;28;20311;-75
2021/04/28 08:12:14;;;;;;;6.28;3.38;;;17.40;99.90;;;;;;5002024;28;20256;-74
2021/04/28 08:14:42;;;;;;;5.27;3.10;;;15.50;99.90;;;;;;5012971;28;20277;-75
2021/04/28 08:17:10;;;;;;;7.03;3.80;;;14.90;99.90;;;;;;5017275;28;20424;-75
2021/04/28 08:19:37;;;;;;;6.47;3.60;;;14.00;99.90;;;;;;5007943;28;22202;-75
2021/04/28 08:22:03;;;;;;;5.47;3.40;;;13.80;99.90;;;;;;5012064;28;20308;-75
2021/04/28 08:24:29;;;;;;;5.93;3.50;;;13.40;99.90;;;;;;5009192;28;20287;-75
2021/04/28 08:26:56;;;;;;;6.77;3.43;;;13.80;99.90;;;;;;5004994;28;20205;-75
2021/04/28 08:29:23;;;;;;;6.63;3.17;;;13.70;99.90;;;;;;5011349;28;20288;-75
2021/04/28 08:31:50;;;;;;;6.10;3.30;;;13.60;99.90;;;;;;5010349;28;20647;-75
2021/04/28 08:34:16;;;;;;;7.00;3.33;;;13.90;99.90;;;;;;5012394;28;20329;-75
2021/04/28 08:36:43;;;;;;;7.07;3.43;;;14.30;99.90;;;;;;5012173;28;20232;-75
2021/04/28 08:39:09;;;;;;;6.50;3.60;;;14.60;99.90;;;;;;5016008;28;20243;-75
2021/04/28 08:41:37;;;;;;;7.43;3.10;;;14.70;99.90;;;;;;5017680;28;20248;-75
2021/04/28 08:44:05;;;;;;;7.00;3.80;;;13.80;99.90;;;;;;5015450;28;20292;-75
2021/04/28 08:46:32;;;;;;;6.80;3.37;;;14.50;99.90;;;;;;5010881;28;20233;-75
2021/04/28 08:48:59;;;;;;;5.43;3.10;;;15.50;99.90;;;;;;5011797;28;20656;-75
2021/04/28 08:51:26;;;;;;;5.10;2.80;;;15.10;99.90;;;;;;5014678;28;20201;-74
2021/04/28 08:53:53;;;;;;;5.13;3.00;;;15.40;99.90;;;;;;5010607;28;20209;-75
2021/04/28 08:56:21;;;;;;;5.50;2.80;;;16.00;99.90;;;;;;5010551;28;20205;-74
2021/04/28 08:58:50;;;;;;;5.47;3.20;;;15.40;99.90;;;;;;5013334;28;20193;-75
2021/04/28 09:01:27;;;;;;;5.37;3.03;;;14.90;99.90;;;;;;5011876;28;20832;-75
2021/04/28 09:03:54;;;;;;;4.40;2.93;;;14.90;99.90;;;;;;5012160;28;20196;-75
2021/04/28 09:06:35;;;;;;;7.00;3.67;;;15.30;99.90;;;;;;5018051;28;20197;-75
2021/04/28 09:09:06;;;;;;;8.00;3.43;;;17.80;99.90;;;;;;5014066;28;20232;-75
2021/04/28 09:11:35;;;;;;;6.37;3.30;;;17.30;99.90;;;;;;5015928;28;20327;-75
2021/04/28 09:14:11;;;;;;;5.37;2.90;;;17.30;99.90;;;;;;5014709;28;20224;-75
2021/04/28 09:16:39;;;;;;;4.60;3.00;;;18.50;99.90;;;;;;5014798;28;20324;-75
2021/04/28 09:19:06;;;;;;;6.37;3.43;;;19.60;99.90;;;;;;4997091;28;20255;-74
2021/04/28 09:21:50;;;;;;;3.63;2.33;;;18.10;99.90;;;;;;5015829;28;20201;-74
2021/04/28 09:24:51;;;;;;;6.63;2.90;;;16.70;99.90;;;;;;5011224;28;20197;-75
2021/04/28 09:27:28;;;;;;;5.80;2.50;;;17.40;99.90;;;;;;5013185;28;20199;-75
2021/04/28 09:29:55;;;;;;;5.95;2.60;;;19.60;99.90;;;;;;5014721;28;20279;-75
2021/04/28 09:32:31;;;;;;;4.07;2.17;;;20.20;99.90;;;;;;5010486;28;20233;-75
2021/04/28 09:35:13;;;;;;;3.90;2.40;;;20.50;99.90;;;;;;5016927;28;20348;-75
2021/04/28 09:37:54;;;;;;;4.38;2.30;;;20.90;99.90;;;;;;5010516;28;20294;-75
2021/04/28 09:40:21;;;;;;;3.38;1.77;;;21.70;99.90;;;;;;4992834;28;20811;-74
2021/04/28 09:42:52;;;;;;;5.95;2.20;;;20.10;99.90;;;;;;5014976;28;20220;-75
2021/04/28 09:45:43;;;;;;;7.18;1.85;;;20.40;99.90;;;;;;5012506;28;20247;-75
2021/04/28 09:48:17;;;;;;;3.97;2.08;;;20.10;99.90;;;;;;5012297;28;20291;-75
2021/04/28 09:50:44;;;;;;;6.00;2.03;;;20.30;99.90;;;;;;4992425;28;20206;-75
2021/04/28 09:53:24;;;;;;;4.07;2.42;;;20.20;99.90;;;;;;5014101;28;20292;-76
2021/04/28 09:55:50;;;;;;;7.35;3.42;;;21.00;99.90;;;;;;5012604;28;20255;-75
2021/04/28 09:58:17;;;;;;;3.97;2.42;;;21.90;99.90;;;;;;5011677;28;20231;-75
2021/04/28 10:00:57;;;;;;;5.60;2.33;;;21.30;99.90;;;;;;5022125;28;20287;-75
2021/04/28 10:03:42;;;;;;;5.78;2.70;;;21.40;99.90;;;;;;5012852;28;20248;-74
2021/04/28 10:06:08;;;;;;;4.78;2.10;;;20.80;99.90;;;;;;5013582;28;20211;-75
2021/04/28 10:08:35;;;;;;;5.45;2.13;;;21.90;99.90;;;;;;5013282;28;20297;-75
2021/04/28 10:11:02;;;;;;;4.57;2.30;;;22.80;99.90;;;;;;5014060;28;20279;-75
2021/04/28 10:13:28;;;;;;;4.00;2.40;;;22.70;99.90;;;;;;5014041;28;20643;-75
2021/04/28 10:15:54;;;;;;;4.03;2.05;;;23.70;98.70;;;;;;5015411;28;20224;-75
2021/04/28 10:18:23;;;;;;;5.07;1.95;;;21.90;99.50;;;;;;5013562;28;20296;-75
2021/04/28 10:20:51;;;;;;;2.88;1.90;;;20.60;99.10;;;;;;4999298;28;20350;-75
2021/04/28 10:23:18;;;;;;;4.30;1.90;;;19.20;99.90;;;;;;5015354;28;20200;-75
2021/04/28 10:25:48;;;;;;;4.32;1.90;;;20.10;99.90;;;;;;5012987;28;20197;-75
2021/04/28 10:28:16;;;;;;;2.85;1.90;;;21.90;99.90;;;;;;5013801;28;20228;-75
2021/04/28 10:30:45;;;;;;;2.95;1.90;;;22.10;98.80;;;;;;5015193;28;20680;-75
2021/04/28 10:33:17;;;;;;;3.47;1.90;;;20.40;98.40;;;;;;5016213;28;20591;-75
2021/04/28 10:35:44;;;;;;;4.10;2.20;;;18.70;99.90;;;;;;5011157;28;20288;-75
2021/04/28 10:38:11;;;;;;;3.70;2.00;;;18.80;99.90;;;;;;5021077;28;20201;-74
2021/04/28 10:40:39;;;;;;;2.78;1.70;;;20.70;99.90;;;;;;5019365;28;20197;-75
2021/04/28 10:43:09;;;;;;;4.00;1.85;;;21.80;98.60;;;;;;5021140;28;20300;-74
2021/04/28 10:45:39;;;;;;;3.08;1.92;;;21.40;99.90;;;;;;5027923;28;20294;-75
2021/04/28 10:48:11;;;;;;;3.72;1.90;;;21.20;98.30;;;;;;5022446;28;20246;-74
2021/04/28 10:50:39;;;;;;;3.55;2.08;;;21.80;99.10;;;;;;5014479;28;20296;-75
2021/04/28 10:53:08;;;;;;;3.88;2.30;;;21.70;96.50;;;;;;5011981;28;20204;-75
2021/04/28 10:55:50;;;;;;;3.03;1.90;;;19.50;99.90;;;;;;5015275;28;20845;-75
2021/04/28 10:58:38;;;;;;;7.00;1.80;;;17.50;99.90;;;;;;5020066;28;20250;-74
2021/04/28 11:01:21;;;;;;;4.65;2.25;;;17.40;99.90;;;;;;5010617;28;20717;-74
2021/04/28 11:03:50;;;;;;;4.85;2.17;;;17.10;99.90;;;;;;5013667;28;20234;-74
2021/04/28 11:06:33;;;;;;;2.42;1.70;;;17.80;99.90;;;;;;5002212;28;20197;-75
2021/04/28 11:09:12;;;;;;;1.98;1.40;;;20.90;99.90;;;;;;5029213;28;20215;-75
2021/04/28 11:11:45;;;;;;;3.15;1.30;;;23.30;95.70;;;;;;5020139;28;20295;-75
2021/04/28 11:14:31;;;;;;;2.58;1.38;;;24.80;92.40;;;;;;5013372;28;20217;-75
2021/04/28 11:17:01;;;;;;;1.73;1.13;;;21.90;93.10;;;;;;5022693;28;20312;-74
2021/04/28 11:19:29;;;;;;;3.63;1.25;;;19.20;95.10;;;;;;4995564;28;20259;-75
2021/04/28 11:22:19;;;;;;;1.95;1.35;;;17.60;99.90;;;;;;5013459;28;20225;-74
2021/04/28 11:25:04;;;;;;;2.70;1.23;;;18.00;99.90;;;;;;5012558;28;20281;-75
2021/04/28 11:28:02;;;;;;;1.75;1.00;;;20.10;98.50;;;;;;5015444;28;20909;-75
2021/04/28 11:30:44;;;;;;;4.65;1.20;;;22.00;95.20;;;;;;5012890;28;21559;-75
2021/04/28 11:33:17;;;;;;;1.80;1.20;;;22.20;94.10;;;;;;5011667;28;20197;-74
2021/04/28 11:35:45;;;;;;;2.83;1.10;;;20.40;95.30;;;;;;5010513;28;20207;-74
2021/04/28 11:38:13;;;;;;;3.55;1.45;;;19.30;97.00;;;;;;4990897;28;20288;-74
2021/04/28 11:40:54;;;;;;;2.92;1.40;;;19.60;97.70;;;;;;5010720;28;20762;-74
2021/04/28 11:43:21;;;;;;;3.72;1.35;;;19.60;99.90;;;;;;5012160;28;20208;-74
2021/04/28 11:45:50;;;;;;;2.22;1.23;;;18.90;98.50;;;;;;5011731;28;20197;-74
2021/04/28 11:48:21;;;;;;;5.65;1.40;;;20.20;99.90;;;;;;5010918;28;20296;-73
2021/04/28 11:50:49;;;;;;;1.52;1.10;;;21.40;98.90;;;;;;5010789;28;20247;-73
2021/04/28 11:53:15;;;;;;;2.83;1.30;;;22.60;96.30;;;;;;5011295;28;20283;-74
2021/04/28 11:55:42;;;;;;;4.22;1.42;;;23.50;92.50;;;;;;5017431;28;20284;-74
2021/04/28 11:58:26;;;;;;;2.00;1.10;;;24.60;92.00;;;;;;5004533;28;20267;-74
2021/04/28 12:01:08;;;;;;;3.72;1.20;;;25.40;86.50;;;;;;5008720;28;20627;-75
2021/04/28 12:03:51;;;;;;;1.45;1.20;;;25.30;78.60;;;;;;5012208;28;20229;-74
2021/04/28 12:06:39;;;;;;;2.35;1.00;;;23.90;82.20;;;;;;5012664;28;20304;-74
2021/04/28 12:09:23;;;;;;;2.22;1.10;;;23.50;82.80;;;;;;4995225;28;20208;-75
2021/04/28 12:12:16;;;;;;;2.72;1.10;;;23.20;79.80;;;;;;5013413;28;20808;-75
2021/04/28 12:14:45;;;;;;;5.60;1.23;;;20.40;89.50;;;;;;5009627;28;20216;-75
2021/04/28 12:17:15;;;;;;;2.90;1.05;;;19.70;92.20;;;;;;5011000;28;20193;-74
2021/04/28 12:19:45;;;;;;;2.17;1.00;;;19.80;92.90;;;;;;5016915;28;20221;-75
2021/04/28 12:22:11;;;;;;;2.65;0.93;;;21.20;90.80;;;;;;5016340;28;20308;-74
2021/04/28 12:24:40;;;;;;;2.13;1.17;;;22.90;88.90;;;;;;5005918;28;20280;-75
2021/04/28 12:27:21;;;;;;;2.92;0.90;;;24.20;82.70;;;;;;5009378;28;20284;-75
2021/04/28 12:29:50;;;;;;;1.90;0.90;;;23.20;84.50;;;;;;5008719;28;20275;-75
2021/04/28 12:32:18;;;;;;;3.00;1.40;;;23.60;85.40;;;;;;5006681;28;20349;-74
2021/04/28 12:34:46;;;;;;;2.60;1.10;;;22.20;84.10;;;;;;5012827;28;20325;-74
2021/04/28 12:37:19;;;;;;;2.22;0.90;;;22.80;83.00;;;;;;4993837;28;20255;-75
2021/04/28 12:39:55;;;;;;;2.47;0.90;;;22.80;82.00;;;;;;5011480;28;20193;-75
2021/04/28 12:42:24;;;;;;;3.17;1.10;;;23.70;81.20;;;;;;5004622;28;20228;-75
2021/04/28 12:44:51;;;;;;;2.22;0.80;;;24.10;74.10;;;;;;5006349;28;20420;-75
2021/04/28 12:47:24;;;;;;;3.30;0.98;;;24.40;76.40;;;;;;5008419;28;20328;-75
2021/04/28 12:49:55;;;;;;;3.03;0.90;;;24.20;74.10;;;;;;5005447;28;20303;-74